sensor_id;sensor_type;location;lat;lon;timestamp;pressure;altitude;pressure_sealevel;temperature;humidity
49216;BME280;45943;53.148;8.204;2023-01-29T00:01:29;102902.69;;;5.04;100.00
49216;BME280;45943;53.148;8.204;2023-01-29T00:03:56;102893.72;;;5.08;100.00
49216;BME280;45943;53.148;8.204;2023-01-29T00:06:22;102897.16;;;5.13;100.00
49216;BME280;45943;53.148;8.204;2023-01-29T00:08:48;102890.84;;;5.17;100.00
49216;BME280;45943;53.148;8.204;2023-01-29T00:11:14;102886.38;;;5.17;100.00
49216;BME280;45943;53.148;8.204;2023-01-29T00:13:41;102882.84;;;5.17;100.00
49216;BME280;45943;53.148;8.204;2023-01-29T00:16:08;102873.97;;;5.18;100.00
49216;BME280;45943;53.148;8.204;2023-01-29T00:18:40;102867.66;;;5.22;100.00
49216;BME280;45943;53.148;8.204;2023-01-29T00:21:10;102860.50;;;5.24;100.00
49216;BME280;45943;53.148;8.204;2023-01-29T00:23:37;102846.47;;;5.17;100.00
49216;BME280;45943;53.148;8.204;2023-01-29T00:26:03;102842.22;;;5.12;100.00
49216;BME280;45943;53.148;8.204;2023-01-29T00:28:30;102835.13;;;5.11;100.00
49216;BME280;45943;53.148;8.204;2023-01-29T00:30:56;102844.06;;;5.08;100.00
49216;BME280;45943;53.148;8.204;2023-01-29T00:33:22;102841.50;;;5.05;100.00
49216;BME280;45943;53.148;8.204;2023-01-29T00:35:48;102847.69;;;5.06;100.00
49216;BME280;45943;53.148;8.204;2023-01-29T00:38:14;102846.06;;;4.99;100.00
49216;BME280;45943;53.148;8.204;2023-01-29T00:40:40;102845.09;;;5.03;100.00
49216;BME280;45943;53.148;8.204;2023-01-29T00:43:41;102853.97;;;5.03;100.00
49216;BME280;45943;53.148;8.204;2023-01-29T00:46:26;102867.34;;;4.99;100.00
49216;BME280;45943;53.148;8.204;2023-01-29T00:48:52;102863.91;;;4.95;100.00
49216;BME280;45943;53.148;8.204;2023-01-29T00:51:19;102852.50;;;4.90;100.00
49216;BME280;45943;53.148;8.204;2023-01-29T00:53:45;102848.03;;;4.90;100.00
49216;BME280;45943;53.148;8.204;2023-01-29T00:56:11;102855.09;;;4.93;100.00
49216;BME280;45943;53.148;8.204;2023-01-29T00:58:37;102857.75;;;4.93;100.00
49216;BME280;45943;53.148;8.204;2023-01-29T01:01:03;102852.25;;;4.99;100.00
49216;BME280;45943;53.148;8.204;2023-01-29T01:03:29;102872.50;;;5.06;100.00
49216;BME280;45943;53.148;8.204;2023-01-29T01:06:05;102878.63;;;5.08;100.00
49216;BME280;45943;53.148;8.204;2023-01-29T01:08:32;102866.28;;;5.06;100.00
49216;BME280;45943;53.148;8.204;2023-01-29T01:11:16;102869.78;;;5.08;100.00
49216;BME280;45943;53.148;8.204;2023-01-29T01:13:42;102860.28;;;4.98;100.00
49216;BME280;45943;53.148;8.204;2023-01-29T01:16:09;102857.63;;;4.98;100.00
49216;BME280;45943;53.148;8.204;2023-01-29T01:18:42;102856.72;;;4.99;100.00
49216;BME280;45943;53.148;8.204;2023-01-29T01:21:08;102868.31;;;4.96;100.00
49216;BME280;45943;53.148;8.204;2023-01-29T01:23:34;102868.28;;;4.98;100.00
49216;BME280;45943;53.148;8.204;2023-01-29T01:26:00;102869.06;;;5.01;100.00
49216;BME280;45943;53.148;8.204;2023-01-29T01:28:26;102864.66;;;5.00;100.00
49216;BME280;45943;53.148;8.204;2023-01-29T01:30:53;102861.19;;;4.97;100.00
49216;BME280;45943;53.148;8.204;2023-01-29T01:33:19;102867.34;;;4.99;100.00
49216;BME280;45943;53.148;8.204;2023-01-29T01:35:45;102860.28;;;4.98;100.00
49216;BME280;45943;53.148;8.204;2023-01-29T01:38:11;102861.25;;;4.95;100.00
49216;BME280;45943;53.148;8.204;2023-01-29T01:40:42;102869.19;;;4.97;100.00
49216;BME280;45943;53.148;8.204;2023-01-29T01:43:09;102866.53;;;4.97;100.00
49216;BME280;45943;53.148;8.204;2023-01-29T01:45:35;102860.44;;;4.92;100.00
49216;BME280;45943;53.148;8.204;2023-01-29T01:48:20;102861.34;;;4.92;100.00
49216;BME280;45943;53.148;8.204;2023-01-29T01:53:16;102846.25;;;4.93;100.00
49216;BME280;45943;53.148;8.204;2023-01-29T01:55:47;102858.63;;;4.94;100.00
49216;BME280;45943;53.148;8.204;2023-01-29T01:58:20;102855.06;;;4.95;100.00
49216;BME280;45943;53.148;8.204;2023-01-29T02:00:51;102856.97;;;4.88;100.00
49216;BME280;45943;53.148;8.204;2023-01-29T02:03:17;102853.53;;;4.84;100.00
49216;BME280;45943;53.148;8.204;2023-01-29T02:06:04;102853.41;;;4.89;100.00
49216;BME280;45943;53.148;8.204;2023-01-29T02:09:04;102859.63;;;4.88;100.00
49216;BME280;45943;53.148;8.204;2023-01-29T02:11:54;102866.06;;;4.79;100.00
49216;BME280;45943;53.148;8.204;2023-01-29T02:14:20;102867.78;;;4.82;100.00
49216;BME280;45943;53.148;8.204;2023-01-29T02:16:46;102867.66;;;4.86;100.00
49216;BME280;45943;53.148;8.204;2023-01-29T02:19:19;102872.94;;;4.88;100.00
49216;BME280;45943;53.148;8.204;2023-01-29T02:22:05;102873.84;;;4.87;100.00
49216;BME280;45943;53.148;8.204;2023-01-29T02:27:20;102866.88;;;4.83;100.00
49216;BME280;45943;53.148;8.204;2023-01-29T02:30:04;102864.22;;;4.83;100.00
49216;BME280;45943;53.148;8.204;2023-01-29T02:35:22;102861.56;;;4.81;100.00
49216;BME280;45943;53.148;8.204;2023-01-29T02:38:03;102858.84;;;4.84;100.00
49216;BME280;45943;53.148;8.204;2023-01-29T02:40:52;102857.91;;;4.87;100.00
49216;BME280;45943;53.148;8.204;2023-01-29T02:46:15;102852.44;;;4.92;100.00
49216;BME280;45943;53.148;8.204;2023-01-29T02:48:55;102848.03;;;4.92;100.00
49216;BME280;45943;53.148;8.204;2023-01-29T02:51:34;102840.94;;;4.93;100.00
49216;BME280;45943;53.148;8.204;2023-01-29T02:57:09;102818.78;;;4.92;100.00
49216;BME280;45943;53.148;8.204;2023-01-29T02:59:48;102815.41;;;4.85;100.00
49216;BME280;45943;53.148;8.204;2023-01-29T03:02:23;102807.28;;;4.90;100.00
49216;BME280;45943;53.148;8.204;2023-01-29T03:05:00;102797.69;;;4.84;100.00
49216;BME280;45943;53.148;8.204;2023-01-29T03:07:33;102798.53;;;4.86;100.00
49216;BME280;45943;53.148;8.204;2023-01-29T03:12:48;102779.97;;;4.85;100.00
49216;BME280;45943;53.148;8.204;2023-01-29T03:15:24;102778.25;;;4.82;100.00
49216;BME280;45943;53.148;8.204;2023-01-29T03:17:56;102773.81;;;4.83;100.00
49216;BME280;45943;53.148;8.204;2023-01-29T03:20:29;102765.84;;;4.83;100.00
49216;BME280;45943;53.148;8.204;2023-01-29T03:23:04;102752.66;;;4.78;100.00
49216;BME280;45943;53.148;8.204;2023-01-29T03:25:38;102745.59;;;4.77;100.00
49216;BME280;45943;53.148;8.204;2023-01-29T03:28:25;102747.22;;;4.83;100.00
49216;BME280;45943;53.148;8.204;2023-01-29T03:31:13;102739.25;;;4.83;100.00
49216;BME280;45943;53.148;8.204;2023-01-29T03:34:02;102740.16;;;4.82;100.00
49216;BME280;45943;53.148;8.204;2023-01-29T03:36:41;102738.53;;;4.76;100.00
49216;BME280;45943;53.148;8.204;2023-01-29T03:39:23;102737.56;;;4.79;100.00
49216;BME280;45943;53.148;8.204;2023-01-29T03:41:54;102730.47;;;4.79;100.00
49216;BME280;45943;53.148;8.204;2023-01-29T03:44:29;102733.94;;;4.83;100.00
49216;BME280;45943;53.148;8.204;2023-01-29T03:47:11;102738.28;;;4.85;100.00
49216;BME280;45943;53.148;8.204;2023-01-29T03:57:56;102730.22;;;4.88;100.00
49216;BME280;45943;53.148;8.204;2023-01-29T04:05:52;102729.41;;;4.86;100.00
49216;BME280;45943;53.148;8.204;2023-01-29T04:08:27;102728.44;;;4.89;100.00
49216;BME280;45943;53.148;8.204;2023-01-29T04:10:56;102731.91;;;4.93;100.00
49216;BME280;45943;53.148;8.204;2023-01-29T04:13:26;102728.28;;;4.95;100.00
49216;BME280;45943;53.148;8.204;2023-01-29T04:15:58;102722.00;;;4.98;100.00
49216;BME280;45943;53.148;8.204;2023-01-29T04:18:26;102727.16;;;5.04;100.00
49216;BME280;45943;53.148;8.204;2023-01-29T04:20:52;102730.69;;;5.04;100.00
49216;BME280;45943;53.148;8.204;2023-01-29T04:23:22;102731.47;;;5.08;100.00
49216;BME280;45943;53.148;8.204;2023-01-29T04:29:04;102729.69;;;5.08;100.00
49216;BME280;45943;53.148;8.204;2023-01-29T04:31:42;102734.03;;;5.12;100.00
49216;BME280;45943;53.148;8.204;2023-01-29T04:37:03;102739.09;;;5.20;100.00
49216;BME280;45943;53.148;8.204;2023-01-29T04:39:39;102738.22;;;5.21;100.00
49216;BME280;45943;53.148;8.204;2023-01-29T04:42:26;102737.38;;;5.19;100.00
49216;BME280;45943;53.148;8.204;2023-01-29T04:45:09;102739.19;;;5.17;100.00
49216;BME280;45943;53.148;8.204;2023-01-29T04:47:46;102742.81;;;5.14;100.00
49216;BME280;45943;53.148;8.204;2023-01-29T04:50:46;102742.78;;;5.16;100.00
49216;BME280;45943;53.148;8.204;2023-01-29T04:53:22;102743.69;;;5.15;100.00
49216;BME280;45943;53.148;8.204;2023-01-29T04:56:05;102748.94;;;5.18;100.00
49216;BME280;45943;53.148;8.204;2023-01-29T04:58:43;102737.38;;;5.19;100.00
49216;BME280;45943;53.148;8.204;2023-01-29T05:01:17;102736.63;;;5.14;100.00
49216;BME280;45943;53.148;8.204;2023-01-29T05:03:45;102734.78;;;5.16;100.00
49216;BME280;45943;53.148;8.204;2023-01-29T05:06:15;102722.53;;;5.10;100.00
49216;BME280;45943;53.148;8.204;2023-01-29T05:08:43;102713.91;;;5.02;100.00
49216;BME280;45943;53.148;8.204;2023-01-29T05:11:12;102708.50;;;5.05;100.00
49216;BME280;45943;53.148;8.204;2023-01-29T05:13:39;102707.72;;;5.02;100.00
49216;BME280;45943;53.148;8.204;2023-01-29T05:16:14;102706.66;;;5.07;100.00
49216;BME280;45943;53.148;8.204;2023-01-29T05:18:46;102716.38;;;5.08;100.00
49216;BME280;45943;53.148;8.204;2023-01-29T05:21:12;102705.94;;;5.02;100.00
49216;BME280;45943;53.148;8.204;2023-01-29T05:23:38;102702.34;;;5.03;100.00
49216;BME280;45943;53.148;8.204;2023-01-29T05:26:04;102703.28;;;5.01;100.00
49216;BME280;45943;53.148;8.204;2023-01-29T05:28:30;102701.44;;;5.04;100.00
49216;BME280;45943;53.148;8.204;2023-01-29T05:30:57;102711.00;;;5.10;100.00
49216;BME280;45943;53.148;8.204;2023-01-29T05:33:24;102715.56;;;5.06;100.00
49216;BME280;45943;53.148;8.204;2023-01-29T05:35:52;102716.38;;;5.08;100.00
49216;BME280;45943;53.148;8.204;2023-01-29T05:38:20;102697.81;;;5.07;100.00
49216;BME280;45943;53.148;8.204;2023-01-29T05:40:46;102693.31;;;5.09;100.00
49216;BME280;45943;53.148;8.204;2023-01-29T05:43:14;102690.75;;;5.06;100.00
49216;BME280;45943;53.148;8.204;2023-01-29T05:45:40;102691.78;;;5.00;100.00
49216;BME280;45943;53.148;8.204;2023-01-29T05:48:06;102687.38;;;4.99;100.00
49216;BME280;45943;53.148;8.204;2023-01-29T05:50:32;102682.06;;;4.99;100.00
49216;BME280;45943;53.148;8.204;2023-01-29T05:52:59;102680.47;;;4.94;100.00
49216;BME280;45943;53.148;8.204;2023-01-29T05:55:26;102683.94;;;4.96;100.00
49216;BME280;45943;53.148;8.204;2023-01-29T05:57:54;102685.72;;;4.95;100.00
49216;BME280;45943;53.148;8.204;2023-01-29T06:00:20;102691.91;;;4.96;100.00
49216;BME280;45943;53.148;8.204;2023-01-29T06:02:46;102686.66;;;4.94;100.00
49216;BME280;45943;53.148;8.204;2023-01-29T06:05:12;102677.88;;;4.90;100.00
49216;BME280;45943;53.148;8.204;2023-01-29T06:07:38;102674.28;;;4.93;100.00
49216;BME280;45943;53.148;8.204;2023-01-29T06:10:13;102683.13;;;4.94;100.00
49216;BME280;45943;53.148;8.204;2023-01-29T06:12:41;102671.81;;;4.85;100.00
49216;BME280;45943;53.148;8.204;2023-01-29T06:15:08;102674.38;;;4.88;100.00
49216;BME280;45943;53.148;8.204;2023-01-29T06:17:35;102671.78;;;4.87;100.00
49216;BME280;45943;53.148;8.204;2023-01-29T06:20:01;102671.06;;;4.80;100.00
49216;BME280;45943;53.148;8.204;2023-01-29T06:22:28;102661.19;;;4.85;100.00
49216;BME280;45943;53.148;8.204;2023-01-29T06:24:54;102665.72;;;4.82;100.00
49216;BME280;45943;53.148;8.204;2023-01-29T06:27:20;102682.34;;;4.88;100.00
49216;BME280;45943;53.148;8.204;2023-01-29T06:29:46;102675.19;;;4.90;100.00
49216;BME280;45943;53.148;8.204;2023-01-29T06:32:12;102666.34;;;4.90;100.00
49216;BME280;45943;53.148;8.204;2023-01-29T06:34:38;102664.75;;;4.84;100.00
49216;BME280;45943;53.148;8.204;2023-01-29T06:37:04;102662.91;;;4.86;100.00
49216;BME280;45943;53.148;8.204;2023-01-29T06:39:30;102657.66;;;4.85;100.00
49216;BME280;45943;53.148;8.204;2023-01-29T06:41:56;102648.75;;;4.86;100.00
49216;BME280;45943;53.148;8.204;2023-01-29T06:44:21;102647.13;;;4.80;100.00
49216;BME280;45943;53.148;8.204;2023-01-29T06:46:47;102640.13;;;4.78;100.00
49216;BME280;45943;53.148;8.204;2023-01-29T06:49:13;102640.00;;;4.82;100.00
49216;BME280;45943;53.148;8.204;2023-01-29T06:51:39;102637.38;;;4.81;100.00
49216;BME280;45943;53.148;8.204;2023-01-29T06:54:05;102646.22;;;4.81;100.00
49216;BME280;45943;53.148;8.204;2023-01-29T06:56:33;102656.84;;;4.81;100.00
49216;BME280;45943;53.148;8.204;2023-01-29T06:58:59;102661.28;;;4.81;100.00
49216;BME280;45943;53.148;8.204;2023-01-29T07:01:25;102658.47;;;4.87;100.00
49216;BME280;45943;53.148;8.204;2023-01-29T07:03:51;102649.72;;;4.83;100.00
49216;BME280;45943;53.148;8.204;2023-01-29T07:06:17;102646.00;;;4.89;100.00
49216;BME280;45943;53.148;8.204;2023-01-29T07:08:43;102621.03;;;4.95;100.00
49216;BME280;45943;53.148;8.204;2023-01-29T07:11:09;102621.97;;;4.94;100.00
49216;BME280;45943;53.148;8.204;2023-01-29T07:13:35;102619.41;;;4.89;100.00
49216;BME280;45943;53.148;8.204;2023-01-29T07:16:02;102626.63;;;4.85;100.00
49216;BME280;45943;53.148;8.204;2023-01-29T07:18:29;102626.19;;;4.68;100.00
49216;BME280;45943;53.148;8.204;2023-01-29T07:20:56;102621.56;;;4.76;100.00
49216;BME280;45943;53.148;8.204;2023-01-29T07:23:22;102607.34;;;4.77;100.00
49216;BME280;45943;53.148;8.204;2023-01-29T07:25:49;102623.25;;;4.79;100.00
49216;BME280;45943;53.148;8.204;2023-01-29T07:28:16;102629.44;;;4.79;100.00
49216;BME280;45943;53.148;8.204;2023-01-29T07:30:42;102631.94;;;4.85;100.00
49216;BME280;45943;53.148;8.204;2023-01-29T07:33:09;102617.66;;;4.88;100.00
49216;BME280;45943;53.148;8.204;2023-01-29T07:35:38;102623.19;;;4.82;100.00
49216;BME280;45943;53.148;8.204;2023-01-29T07:38:06;102622.16;;;4.86;100.00
49216;BME280;45943;53.148;8.204;2023-01-29T07:40:34;102624.69;;;4.90;100.00
49216;BME280;45943;53.148;8.204;2023-01-29T07:43:01;102614.16;;;4.87;100.00
49216;BME280;45943;53.148;8.204;2023-01-29T07:45:29;102606.00;;;4.94;100.00
49216;BME280;45943;53.148;8.204;2023-01-29T07:47:56;102613.13;;;4.93;100.00
49216;BME280;45943;53.148;8.204;2023-01-29T07:50:22;102612.41;;;4.86;100.00
49216;BME280;45943;53.148;8.204;2023-01-29T07:52:50;102618.38;;;4.95;100.00
49216;BME280;45943;53.148;8.204;2023-01-29T07:55:16;102605.91;;;4.97;100.00
49216;BME280;45943;53.148;8.204;2023-01-29T07:57:42;102610.19;;;5.02;100.00
49216;BME280;45943;53.148;8.204;2023-01-29T08:00:09;102602.16;;;5.04;100.00
49216;BME280;45943;53.148;8.204;2023-01-29T08:02:36;102601.34;;;5.02;100.00
49216;BME280;45943;53.148;8.204;2023-01-29T08:05:02;102602.94;;;5.07;100.00
49216;BME280;45943;53.148;8.204;2023-01-29T08:07:28;102599.56;;;5.02;100.00
49216;BME280;45943;53.148;8.204;2023-01-29T08:09:54;102595.47;;;4.89;100.00
49216;BME280;45943;53.148;8.204;2023-01-29T08:12:20;102600.63;;;4.95;100.00
49216;BME280;45943;53.148;8.204;2023-01-29T08:14:46;102597.16;;;4.93;100.00
49216;BME280;45943;53.148;8.204;2023-01-29T08:17:12;102607.78;;;4.93;100.00
49216;BME280;45943;53.148;8.204;2023-01-29T08:19:38;102601.28;;;5.03;100.00
49216;BME280;45943;53.148;8.204;2023-01-29T08:22:04;102590.56;;;5.06;100.00
49216;BME280;45943;53.148;8.204;2023-01-29T08:24:31;102590.44;;;5.09;100.00
49216;BME280;45943;53.148;8.204;2023-01-29T08:26:57;102586.09;;;5.07;100.00
49216;BME280;45943;53.148;8.204;2023-01-29T08:29:23;102589.72;;;5.04;100.00
49216;BME280;45943;53.148;8.204;2023-01-29T08:31:49;102594.94;;;5.07;100.00
49216;BME280;45943;53.148;8.204;2023-01-29T08:34:15;102600.31;;;5.06;100.00
49216;BME280;45943;53.148;8.204;2023-01-29T08:36:41;102595.69;;;5.12;100.00
49216;BME280;45943;53.148;8.204;2023-01-29T08:39:07;102608.72;;;5.22;100.00
49216;BME280;45943;53.148;8.204;2023-01-29T08:41:33;102608.63;;;5.25;100.00
49216;BME280;45943;53.148;8.204;2023-01-29T08:43:59;102613.19;;;5.21;100.00
49216;BME280;45943;53.148;8.204;2023-01-29T08:46:26;102610.41;;;5.24;100.00
49216;BME280;45943;53.148;8.204;2023-01-29T08:48:52;102604.06;;;5.28;100.00
49216;BME280;45943;53.148;8.204;2023-01-29T08:51:20;102601.34;;;5.31;100.00
49216;BME280;45943;53.148;8.204;2023-01-29T08:53:46;102595.97;;;5.33;100.00
49216;BME280;45943;53.148;8.204;2023-01-29T08:56:12;102594.34;;;5.27;100.00
49216;BME280;45943;53.148;8.204;2023-01-29T08:58:38;102582.63;;;5.34;100.00
49216;BME280;45943;53.148;8.204;2023-01-29T09:01:05;102575.97;;;5.47;100.00
49216;BME280;45943;53.148;8.204;2023-01-29T09:03:31;102591.81;;;5.52;100.00
49216;BME280;45943;53.148;8.204;2023-01-29T09:05:57;102567.59;;;5.60;100.00
49216;BME280;45943;53.148;8.204;2023-01-29T09:08:23;102575.34;;;5.67;100.00
49216;BME280;45943;53.148;8.204;2023-01-29T09:10:49;102572.69;;;5.67;100.00
49216;BME280;45943;53.148;8.204;2023-01-29T09:13:15;102561.78;;;5.75;100.00
49216;BME280;45943;53.148;8.204;2023-01-29T09:15:41;102564.81;;;5.92;100.00
49216;BME280;45943;53.148;8.204;2023-01-29T09:18:07;102571.81;;;5.95;100.00
49216;BME280;45943;53.148;8.204;2023-01-29T09:20:33;102563.06;;;5.91;100.00
49216;BME280;45943;53.148;8.204;2023-01-29T09:23:06;102566.44;;;5.96;100.00
49216;BME280;45943;53.148;8.204;2023-01-29T09:25:33;102567.78;;;6.10;100.00
49216;BME280;45943;53.148;8.204;2023-01-29T09:27:59;102553.31;;;5.89;100.00
49216;BME280;45943;53.148;8.204;2023-01-29T09:30:25;102560.34;;;5.65;100.00
49216;BME280;45943;53.148;8.204;2023-01-29T09:32:51;102555.03;;;5.37;100.00
49216;BME280;45943;53.148;8.204;2023-01-29T09:35:17;102546.19;;;5.36;100.00
49216;BME280;45943;53.148;8.204;2023-01-29T09:37:46;102543.69;;;5.30;100.00
49216;BME280;45943;53.148;8.204;2023-01-29T09:43:02;102554.28;;;5.33;100.00
49216;BME280;45943;53.148;8.204;2023-01-29T09:45:32;102555.09;;;5.35;100.00
49216;BME280;45943;53.148;8.204;2023-01-29T09:47:59;102546.19;;;5.36;100.00
49216;BME280;45943;53.148;8.204;2023-01-29T09:50:30;102534.56;;;5.39;100.00
49216;BME280;45943;53.148;8.204;2023-01-29T09:53:10;102533.63;;;5.40;100.00
49216;BME280;45943;53.148;8.204;2023-01-29T09:55:47;102525.72;;;5.38;100.00
49216;BME280;45943;53.148;8.204;2023-01-29T09:58:17;102516.09;;;5.34;100.00
49216;BME280;45943;53.148;8.204;2023-01-29T10:03:48;102510.25;;;5.50;100.00
49216;BME280;45943;53.148;8.204;2023-01-29T10:12:15;102501.91;;;5.62;100.00
49216;BME280;45943;53.148;8.204;2023-01-29T10:23:31;102484.25;;;5.58;100.00
49216;BME280;45943;53.148;8.204;2023-01-29T10:25:59;102489.84;;;5.50;100.00
49216;BME280;45943;53.148;8.204;2023-01-29T10:28:30;102482.53;;;5.57;100.00
49216;BME280;45943;53.148;8.204;2023-01-29T10:31:28;102492.94;;;5.64;100.00
49216;BME280;45943;53.148;8.204;2023-01-29T10:36:53;102496.09;;;5.75;100.00
49216;BME280;45943;53.148;8.204;2023-01-29T10:39:21;102501.78;;;5.65;100.00
49216;BME280;45943;53.148;8.204;2023-01-29T10:44:47;102500.66;;;5.45;100.00
49216;BME280;45943;53.148;8.204;2023-01-29T10:47:39;102473.72;;;5.55;100.00
49216;BME280;45943;53.148;8.204;2023-01-29T10:53:13;102471.94;;;5.55;100.00
49216;BME280;45943;53.148;8.204;2023-01-29T10:55:49;102478.28;;;5.51;100.00
49216;BME280;45943;53.148;8.204;2023-01-29T10:58:21;102455.97;;;5.55;100.00
49216;BME280;45943;53.148;8.204;2023-01-29T11:00:55;102448.34;;;5.71;100.00
49216;BME280;45943;53.148;8.204;2023-01-29T11:03:22;102448.03;;;5.79;100.00
49216;BME280;45943;53.148;8.204;2023-01-29T11:05:54;102459.75;;;5.74;100.00
49216;BME280;45943;53.148;8.204;2023-01-29T11:08:23;102444.56;;;5.76;100.00
49216;BME280;45943;53.148;8.204;2023-01-29T11:13:49;102435.47;;;5.84;100.00
49216;BME280;45943;53.148;8.204;2023-01-29T11:16:20;102420.78;;;5.72;100.00
49216;BME280;45943;53.148;8.204;2023-01-29T11:18:50;102422.91;;;5.87;100.00
49216;BME280;45943;53.148;8.204;2023-01-29T11:21:23;102421.34;;;5.82;100.00
49216;BME280;45943;53.148;8.204;2023-01-29T11:24:13;102419.31;;;5.88;100.00
49216;BME280;45943;53.148;8.204;2023-01-29T11:26:42;102413.28;;;5.83;100.00
49216;BME280;45943;53.148;8.204;2023-01-29T11:29:26;102401.91;;;5.78;100.00
49216;BME280;45943;53.148;8.204;2023-01-29T11:31:58;102405.56;;;5.75;100.00
49216;BME280;45943;53.148;8.204;2023-01-29T11:34:25;102407.09;;;5.83;100.00
49216;BME280;45943;53.148;8.204;2023-01-29T11:39:27;102388.53;;;5.80;100.00
49216;BME280;45943;53.148;8.204;2023-01-29T11:42:00;102385.00;;;5.81;100.00
49216;BME280;45943;53.148;8.204;2023-01-29T11:44:29;102382.41;;;5.78;100.00
49216;BME280;45943;53.148;8.204;2023-01-29T11:47:14;102385.00;;;5.81;100.00
49216;BME280;45943;53.148;8.204;2023-01-29T11:49:49;102378.06;;;5.75;100.00
49216;BME280;45943;53.148;8.204;2023-01-29T11:52:19;102379.94;;;5.73;100.00
49216;BME280;45943;53.148;8.204;2023-01-29T11:54:56;102379.69;;;5.79;100.00
49216;BME280;45943;53.148;8.204;2023-01-29T11:59:58;102369.09;;;5.78;100.00
49216;BME280;45943;53.148;8.204;2023-01-29T12:04:57;102358.00;;;5.91;100.00
49216;BME280;45943;53.148;8.204;2023-01-29T12:07:27;102353.59;;;5.89;100.00
49216;BME280;45943;53.148;8.204;2023-01-29T12:09:56;102361.59;;;5.89;100.00
49216;BME280;45943;53.148;8.204;2023-01-29T12:12:30;102352.53;;;5.94;100.00
49216;BME280;45943;53.148;8.204;2023-01-29T12:15:30;102349.75;;;5.97;100.00
49216;BME280;45943;53.148;8.204;2023-01-29T12:17:51;102345.38;;;5.96;100.00
49216;BME280;45943;53.148;8.204;2023-01-29T12:20:25;102345.09;;;6.04;100.00
49216;BME280;45943;53.148;8.204;2023-01-29T12:36:18;102317.19;;;5.91;100.00
49216;BME280;45943;53.148;8.204;2023-01-29T12:38:56;102307.78;;;6.04;100.00
49216;BME280;45943;53.148;8.204;2023-01-29T12:41:27;102301.38;;;6.10;100.00
49216;BME280;45943;53.148;8.204;2023-01-29T12:44:01;102298.88;;;6.05;100.00
49216;BME280;45943;53.148;8.204;2023-01-29T12:46:33;102299.50;;;6.12;100.00
49216;BME280;45943;53.148;8.204;2023-01-29T12:49:08;102303.47;;;6.01;100.00
49216;BME280;45943;53.148;8.204;2023-01-29T12:51:41;102285.28;;;5.88;100.00
49216;BME280;45943;53.148;8.204;2023-01-29T12:54:20;102280.28;;;6.03;100.00
49216;BME280;45943;53.148;8.204;2023-01-29T12:57:07;102274.91;;;6.05;100.00
49216;BME280;45943;53.148;8.204;2023-01-29T12:59:44;102273.44;;;5.96;100.00
49216;BME280;45943;53.148;8.204;2023-01-29T13:05:18;102260.84;;;6.01;100.00
49216;BME280;45943;53.148;8.204;2023-01-29T13:07:52;102258.53;;;5.92;100.00
49216;BME280;45943;53.148;8.204;2023-01-29T13:10:36;102246.94;;;5.93;100.00
49216;BME280;45943;53.148;8.204;2023-01-29T13:16:02;102243.41;;;5.93;100.00
49216;BME280;45943;53.148;8.204;2023-01-29T13:21:13;102223.47;;;5.80;100.00
49216;BME280;45943;53.148;8.204;2023-01-29T13:23:44;102221.78;;;5.77;100.00
49216;BME280;45943;53.148;8.204;2023-01-29T13:26:16;102217.16;;;5.82;100.00
49216;BME280;45943;53.148;8.204;2023-01-29T13:28:43;102231.28;;;5.84;100.00
49216;BME280;45943;53.148;8.204;2023-01-29T13:31:10;102215.72;;;5.73;100.00
49216;BME280;45943;53.148;8.204;2023-01-29T13:33:42;102212.13;;;5.74;100.00
49216;BME280;45943;53.148;8.204;2023-01-29T13:36:17;102209.69;;;5.68;100.00
49216;BME280;45943;53.148;8.204;2023-01-29T13:39:01;102208.53;;;5.75;100.00
49216;BME280;45943;53.148;8.204;2023-01-29T13:41:31;102201.41;;;5.76;100.00
49216;BME280;45943;53.148;8.204;2023-01-29T13:43:59;102200.50;;;5.77;100.00
49216;BME280;45943;53.148;8.204;2023-01-29T13:46:25;102189.69;;;5.82;100.00
49216;BME280;45943;53.148;8.204;2023-01-29T13:48:52;102191.13;;;5.67;100.00
49216;BME280;45943;53.148;8.204;2023-01-29T13:51:28;102193.38;;;5.78;100.00
49216;BME280;45943;53.148;8.204;2023-01-29T13:54:04;102188.31;;;5.71;100.00
49216;BME280;45943;53.148;8.204;2023-01-29T13:58:59;102188.31;;;5.71;100.00
49216;BME280;45943;53.148;8.204;2023-01-29T14:06:44;102175.94;;;5.69;100.00
49216;BME280;45943;53.148;8.204;2023-01-29T14:09:29;102165.94;;;5.75;100.00
49216;BME280;45943;53.148;8.204;2023-01-29T14:11:55;102169.53;;;5.74;100.00
49216;BME280;45943;53.148;8.204;2023-01-29T14:17:21;102154.88;;;5.86;100.00
49216;BME280;45943;53.148;8.204;2023-01-29T14:19:52;102156.97;;;5.78;100.00
49216;BME280;45943;53.148;8.204;2023-01-29T14:22:27;102157.59;;;5.85;100.00
49216;BME280;45943;53.148;8.204;2023-01-29T14:25:02;102155.88;;;5.84;100.00
49216;BME280;45943;53.148;8.204;2023-01-29T14:27:30;102145.34;;;5.81;100.00
49216;BME280;45943;53.148;8.204;2023-01-29T14:29:58;102152.63;;;5.75;100.00
49216;BME280;45943;53.148;8.204;2023-01-29T14:32:26;102140.06;;;5.79;100.00
49216;BME280;45943;53.148;8.204;2023-01-29T14:35:00;102147.00;;;5.83;100.00
49216;BME280;45943;53.148;8.204;2023-01-29T14:37:33;102141.41;;;5.67;100.00
49216;BME280;45943;53.148;8.204;2023-01-29T14:48:03;102118.75;;;5.79;100.00
49216;BME280;45943;53.148;8.204;2023-01-29T14:51:04;102126.75;;;5.79;100.00
49216;BME280;45943;53.148;8.204;2023-01-29T14:56:14;102099.31;;;5.77;100.00
49216;BME280;45943;53.148;8.204;2023-01-29T14:58:50;102099.97;;;5.60;100.00
49216;BME280;45943;53.148;8.204;2023-01-29T15:01:34;102099.13;;;5.60;100.00
49216;BME280;45943;53.148;8.204;2023-01-29T15:04:03;102095.59;;;5.59;100.00
49216;BME280;45943;53.148;8.204;2023-01-29T15:12:14;102085.28;;;5.28;100.00
49216;BME280;45943;53.148;8.204;2023-01-29T15:14:47;102081.75;;;5.28;100.00